createdAt,value
2019-04-26T00:02:19.520Z,23.31
2019-04-26T00:04:46.162Z,23.28
2019-04-26T00:07:12.843Z,23.31
2019-04-26T00:09:39.477Z,23.29
2019-04-26T00:12:06.349Z,23.26
2019-04-26T00:14:32.762Z,23.26
2019-04-26T00:16:59.444Z,23.25
2019-04-26T00:21:52.384Z,23.22
2019-04-26T00:24:19.398Z,23.23
2019-04-26T00:26:45.679Z,23.18
2019-04-26T00:29:12.665Z,23.19
2019-04-26T00:31:38.995Z,23.16
2019-04-26T00:34:05.632Z,23.17
2019-04-26T00:38:58.919Z,23.14
2019-04-26T00:41:25.557Z,23.15
2019-04-26T00:43:52.194Z,23.16
2019-04-26T00:46:18.914Z,23.08
2019-04-26T00:48:45.536Z,23.09
2019-04-26T00:51:12.808Z,23.09
2019-04-26T00:53:38.803Z,23.06
2019-04-26T00:56:05.477Z,23.04
2019-04-26T00:58:33.557Z,23.07
2019-04-26T01:00:58.807Z,23.05
2019-04-26T01:03:25.448Z,23.06
2019-04-26T01:05:59.920Z,23.02
2019-04-26T01:08:19.253Z,23.03
2019-04-26T01:10:45.386Z,23.00
2019-04-26T01:13:12.066Z,23.03
2019-04-26T01:15:38.743Z,23.01
2019-04-26T01:18:05.379Z,22.98
2019-04-26T01:20:32.019Z,22.94
2019-04-26T01:22:58.752Z,22.97
2019-04-26T01:25:25.389Z,22.95
2019-04-26T01:27:52.042Z,22.93
2019-04-26T01:30:19.608Z,22.91
2019-04-26T01:32:45.320Z,22.92
2019-04-26T01:35:11.971Z,22.94
2019-04-26T01:37:38.614Z,22.94
2019-04-26T01:40:05.258Z,22.91
2019-04-26T01:42:32.767Z,22.87
2019-04-26T01:47:26.187Z,22.87
2019-04-26T01:49:51.868Z,22.82
2019-04-26T01:52:18.538Z,22.81
2019-04-26T01:54:45.175Z,22.84
2019-04-26T01:57:11.806Z,22.83
2019-04-26T01:59:38.496Z,22.81
2019-04-26T02:02:05.187Z,22.79
2019-04-26T02:04:32.028Z,22.79
2019-04-26T02:06:58.470Z,22.79
2019-04-26T02:09:25.119Z,22.74
2019-04-26T02:11:51.806Z,22.78
2019-04-26T02:14:18.456Z,22.78
2019-04-26T02:16:45.090Z,22.78
2019-04-26T02:19:11.727Z,22.67
2019-04-26T02:21:38.405Z,22.71
2019-04-26T02:24:05.050Z,22.72
2019-04-26T02:26:32.560Z,22.68
2019-04-26T02:28:58.329Z,22.67
2019-04-26T02:31:26.634Z,22.69
2019-04-26T02:33:51.669Z,22.68
2019-04-26T02:36:18.344Z,22.65
2019-04-26T02:38:46.017Z,22.59
2019-04-26T02:41:12.654Z,22.61
2019-04-26T02:43:39.297Z,22.63
2019-04-26T02:46:05.936Z,22.59
2019-04-26T02:48:34.287Z,22.61
2019-04-26T02:50:59.261Z,22.56
2019-04-26T02:53:28.817Z,22.61
2019-04-26T02:55:52.612Z,22.57
2019-04-26T02:58:19.287Z,22.55
2019-04-26T03:00:45.920Z,22.51
2019-04-26T03:03:12.556Z,22.53
2019-04-26T03:05:39.642Z,22.54
2019-04-26T03:08:05.924Z,22.51
2019-04-26T03:10:34.718Z,22.46
2019-04-26T03:12:59.195Z,22.50
2019-04-26T03:17:52.476Z,22.46
2019-04-26T03:20:19.171Z,22.49
2019-04-26T03:22:45.804Z,22.45
2019-04-26T03:25:12.440Z,22.48
2019-04-26T03:27:41.252Z,22.39
2019-04-26T03:30:19.938Z,22.42
2019-04-26T03:32:33.892Z,22.40
2019-04-26T03:34:59.007Z,22.43
2019-04-26T03:39:52.332Z,22.41
2019-04-26T03:42:18.969Z,22.37
2019-04-26T03:44:45.604Z,22.39
2019-04-26T03:47:12.263Z,22.36
2019-04-26T03:49:39.886Z,22.38
2019-04-26T03:52:05.603Z,22.37
2019-04-26T03:54:32.247Z,22.39
2019-04-26T03:56:58.897Z,22.32
2019-04-26T04:01:52.205Z,22.27
2019-04-26T04:04:18.840Z,22.21
2019-04-26T04:06:58.117Z,22.16
2019-04-26T04:09:12.129Z,22.19
2019-04-26T04:11:40.824Z,22.18
2019-04-26T04:14:05.711Z,22.18
2019-04-26T04:16:32.123Z,22.33
2019-04-26T04:18:58.805Z,22.41
2019-04-26T04:21:25.478Z,22.30
2019-04-26T04:23:52.125Z,22.44
2019-04-26T04:26:18.795Z,22.35
2019-04-26T04:28:46.499Z,22.34
2019-04-26T04:31:12.069Z,22.35
2019-04-26T04:33:40.695Z,22.39
2019-04-26T04:36:05.391Z,22.60
2019-04-26T04:38:32.026Z,22.67
2019-04-26T04:40:58.669Z,22.72
2019-04-26T04:43:25.399Z,22.72
2019-04-26T04:45:53.114Z,22.67
2019-04-26T04:48:18.631Z,22.71
2019-04-26T04:50:46.918Z,22.79
2019-04-26T04:53:11.946Z,22.87
2019-04-26T04:55:38.644Z,22.84
2019-04-26T04:58:05.293Z,22.91
2019-04-26T05:00:31.970Z,22.96
2019-04-26T05:02:58.607Z,22.99
2019-04-26T05:05:25.245Z,23.04
2019-04-26T05:07:51.998Z,23.07
2019-04-26T05:10:19.897Z,23.09
2019-04-26T05:12:45.809Z,23.15
2019-04-26T05:15:11.930Z,23.16
2019-04-26T05:17:38.616Z,23.24
2019-04-26T05:20:05.249Z,23.34
2019-04-26T05:22:31.934Z,23.38
2019-04-26T05:24:58.568Z,23.36
2019-04-26T05:29:52.077Z,23.49
2019-04-26T05:32:18.541Z,23.50
2019-04-26T05:34:46.238Z,23.56
2019-04-26T05:37:11.876Z,23.60
2019-04-26T05:39:38.565Z,23.63
2019-04-26T05:42:05.207Z,23.66
2019-04-26T05:44:31.845Z,23.70
2019-04-26T05:46:58.486Z,23.77
2019-04-26T05:49:25.125Z,23.79
2019-04-26T05:51:51.986Z,23.80
2019-04-26T05:54:18.481Z,23.80
2019-04-26T05:56:45.118Z,23.87
2019-04-26T05:59:11.757Z,23.93
2019-04-26T06:04:05.172Z,24.02
2019-04-26T06:06:31.846Z,24.05
2019-04-26T06:08:59.555Z,24.09
2019-04-26T06:11:25.145Z,24.13
2019-04-26T06:13:52.310Z,24.15
2019-04-26T06:16:18.472Z,24.18
2019-04-26T06:18:45.164Z,24.24
2019-04-26T06:21:11.802Z,24.28
2019-04-26T06:26:05.101Z,24.37
2019-04-26T06:28:31.734Z,24.40
2019-04-26T06:30:59.372Z,24.47
2019-04-26T06:33:25.027Z,24.51
2019-04-26T06:35:51.736Z,24.55
2019-04-26T06:38:18.339Z,24.60
2019-04-26T06:40:44.972Z,24.64
2019-04-26T06:43:11.610Z,24.67
2019-04-26T06:48:06.015Z,24.72
2019-04-26T06:50:31.658Z,24.85
2019-04-26T06:52:58.298Z,24.88
2019-04-26T06:55:27.700Z,24.92
2019-04-26T06:57:54.343Z,24.96
2019-04-26T07:00:20.982Z,25.00
2019-04-26T07:02:47.620Z,25.06
2019-04-26T07:05:15.246Z,25.08
2019-04-26T07:07:40.902Z,25.11
2019-04-26T07:10:07.578Z,25.13
2019-04-26T07:12:34.264Z,25.16
2019-04-26T07:15:02.203Z,25.20
2019-04-26T07:17:27.618Z,25.23
2019-04-26T07:22:20.887Z,25.28
2019-04-26T07:24:47.531Z,25.31
2019-04-26T07:27:14.189Z,25.31
2019-04-26T07:29:40.824Z,25.35
2019-04-26T07:32:07.524Z,25.37
2019-04-26T07:34:34.159Z,25.40
2019-04-26T07:37:01.793Z,25.42
2019-04-26T07:39:27.516Z,25.42
2019-04-26T07:41:54.151Z,25.43
2019-04-26T07:44:20.787Z,25.44
2019-04-26T07:46:47.423Z,25.47
2019-04-26T07:49:14.055Z,25.47
2019-04-26T07:51:40.698Z,25.48
2019-04-26T07:54:07.338Z,25.52
2019-04-26T07:56:34.020Z,25.51
2019-04-26T07:59:04.113Z,25.54
2019-04-26T08:01:27.295Z,25.53
2019-04-26T08:03:53.930Z,25.54
2019-04-26T08:06:20.567Z,25.54
2019-04-26T08:08:47.204Z,25.55
2019-04-26T08:11:14.922Z,25.56
2019-04-26T08:13:40.510Z,25.55
2019-04-26T08:16:08.531Z,25.53
2019-04-26T08:18:33.822Z,25.55
2019-04-26T08:21:02.550Z,25.57
2019-04-26T08:23:39.539Z,25.55
2019-04-26T08:25:53.778Z,25.56
2019-04-26T08:28:20.447Z,25.53
2019-04-26T08:30:47.084Z,25.51
2019-04-26T08:33:14.688Z,25.55
2019-04-26T08:35:40.362Z,25.56
2019-04-26T08:38:15.022Z,25.58
2019-04-26T08:40:33.755Z,25.60
2019-04-26T08:43:00.437Z,25.62
2019-04-26T08:45:27.075Z,25.63
2019-04-26T08:47:53.713Z,25.63
2019-04-26T08:50:20.359Z,25.61
2019-04-26T08:52:47.009Z,25.65
2019-04-26T08:55:13.660Z,25.64
2019-04-26T08:57:40.294Z,25.66
2019-04-26T09:00:06.939Z,25.66
2019-04-26T09:02:33.586Z,25.64
2019-04-26T09:05:00.230Z,25.66
2019-04-26T09:07:26.880Z,25.64
2019-04-26T09:12:23.406Z,25.65
2019-04-26T09:14:46.786Z,25.66
2019-04-26T09:17:13.453Z,25.65
2019-04-26T09:19:40.089Z,25.64
2019-04-26T09:22:12.796Z,25.63
2019-04-26T09:24:33.390Z,25.66
2019-04-26T09:27:00.023Z,25.60
2019-04-26T09:29:30.306Z,25.60
2019-04-26T09:34:19.957Z,25.66
2019-04-26T09:36:46.706Z,25.67
2019-04-26T09:39:13.343Z,25.66
2019-04-26T09:41:39.982Z,25.66
2019-04-26T09:44:06.626Z,25.66
2019-04-26T09:46:33.259Z,25.65
2019-04-26T09:49:03.093Z,25.69
2019-04-26T09:51:26.538Z,25.71
2019-04-26T09:53:53.176Z,25.69
2019-04-26T09:56:19.811Z,25.72
2019-04-26T09:58:46.458Z,25.70
2019-04-26T10:01:13.148Z,25.71
2019-04-26T10:03:39.775Z,25.71
2019-04-26T10:06:08.207Z,25.71
2019-04-26T10:08:33.064Z,25.75
2019-04-26T10:10:59.694Z,25.81
2019-04-26T10:13:26.349Z,25.81
2019-04-26T10:15:52.992Z,25.84
2019-04-26T10:18:20.345Z,25.82
2019-04-26T10:20:46.277Z,25.89
2019-04-26T10:23:12.919Z,25.87
2019-04-26T10:25:39.567Z,25.89
2019-04-26T10:28:06.203Z,25.93
2019-04-26T10:30:32.889Z,25.89
2019-04-26T10:33:02.299Z,25.97
2019-04-26T10:35:26.173Z,25.94
2019-04-26T10:37:52.860Z,25.95
2019-04-26T10:42:46.119Z,25.98
2019-04-26T10:45:14.795Z,26.02
2019-04-26T10:47:39.936Z,26.04
2019-04-26T10:50:06.033Z,26.03
2019-04-26T10:52:32.691Z,26.00
2019-04-26T10:54:59.329Z,26.04
2019-04-26T10:57:25.969Z,26.10
2019-04-26T10:59:52.603Z,26.07
2019-04-26T11:04:45.893Z,26.09
2019-04-26T11:07:12.525Z,26.12
2019-04-26T11:09:39.219Z,26.08
2019-04-26T11:12:05.806Z,26.09
2019-04-26T11:14:32.439Z,26.16
2019-04-26T11:16:59.124Z,26.14
2019-04-26T11:19:25.761Z,26.19
2019-04-26T11:21:54.894Z,26.21
2019-04-26T11:26:45.699Z,26.23
2019-04-26T11:29:12.335Z,26.21
2019-04-26T11:31:38.976Z,26.26
2019-04-26T11:34:05.840Z,26.21
2019-04-26T11:36:32.254Z,26.27
2019-04-26T11:39:01.367Z,26.30
2019-04-26T11:41:25.554Z,26.35
2019-04-26T11:43:52.855Z,26.39
2019-04-26T11:46:21.799Z,26.35
2019-04-26T11:48:45.497Z,26.37
2019-04-26T11:51:12.141Z,26.39
2019-04-26T11:53:40.481Z,26.41
2019-04-26T11:56:05.799Z,26.45
2019-04-26T11:58:32.070Z,26.44
2019-04-26T12:03:25.944Z,26.48
2019-04-26T12:05:52.019Z,26.52
2019-04-26T12:08:18.654Z,26.56
2019-04-26T12:10:45.938Z,26.58
2019-04-26T12:13:11.973Z,26.59
2019-04-26T12:15:38.946Z,26.59
2019-04-26T12:18:05.604Z,26.60
2019-04-26T12:20:31.931Z,26.65
2019-04-26T12:22:58.586Z,26.62
2019-04-26T12:25:25.237Z,26.63
2019-04-26T12:27:53.591Z,26.66
2019-04-26T12:30:18.612Z,26.68
2019-04-26T12:32:46.311Z,26.70
2019-04-26T12:35:11.895Z,26.71
2019-04-26T12:37:38.532Z,26.73
2019-04-26T12:40:07.288Z,26.71
2019-04-26T12:42:31.807Z,26.72
2019-04-26T12:44:58.446Z,26.76
2019-04-26T12:47:25.103Z,26.77
2019-04-26T12:49:54.460Z,26.79
2019-04-26T12:52:21.649Z,26.81
2019-04-26T12:54:45.026Z,26.83
2019-04-26T12:57:11.669Z,26.83
2019-04-26T12:59:44.258Z,26.82
2019-04-26T13:02:06.143Z,26.81
2019-04-26T13:04:36.279Z,26.83
2019-04-26T13:06:58.263Z,26.81
2019-04-26T13:09:26.575Z,26.81
2019-04-26T13:11:52.773Z,26.87
2019-04-26T13:14:18.261Z,26.86
2019-04-26T13:16:44.909Z,26.88
2019-04-26T13:19:11.549Z,26.88
2019-04-26T13:21:38.902Z,26.88
2019-04-26T13:24:06.233Z,26.87
2019-04-26T13:26:34.913Z,26.87
2019-04-26T13:28:58.826Z,26.84
2019-04-26T13:31:31.480Z,26.84
2019-04-26T13:33:51.408Z,26.86
2019-04-26T13:36:18.044Z,26.85
2019-04-26T13:38:45.163Z,26.85
2019-04-26T13:41:11.330Z,26.83
2019-04-26T13:43:37.962Z,26.86
2019-04-26T13:46:04.605Z,26.86
2019-04-26T13:48:31.236Z,26.86
2019-04-26T13:51:01.409Z,26.92
2019-04-26T13:53:25.829Z,26.88
2019-04-26T13:55:51.161Z,26.89
2019-04-26T13:58:20.975Z,26.91
2019-04-26T14:00:44.983Z,26.93
2019-04-26T14:03:11.090Z,26.92
2019-04-26T14:05:37.762Z,26.90
2019-04-26T14:08:04.461Z,26.88
2019-04-26T14:10:31.110Z,26.92
2019-04-26T14:12:57.750Z,26.91
2019-04-26T14:15:24.416Z,26.90
2019-04-26T14:17:51.100Z,26.87
2019-04-26T14:20:19.265Z,26.87
2019-04-26T14:22:44.347Z,26.86
2019-04-26T14:25:11.304Z,26.89
2019-04-26T14:27:37.671Z,26.86
2019-04-26T14:30:06.505Z,26.86
2019-04-26T14:32:30.967Z,26.83
2019-04-26T14:34:57.613Z,26.83
2019-04-26T14:37:24.250Z,26.81
2019-04-26T14:39:51.382Z,26.82
2019-04-26T14:42:17.535Z,26.83
2019-04-26T14:44:49.677Z,26.83
2019-04-26T14:47:14.723Z,26.88
2019-04-26T14:49:39.154Z,26.83
2019-04-26T14:52:04.114Z,26.81
2019-04-26T14:56:59.321Z,26.80
2019-04-26T14:59:24.093Z,26.80
2019-04-26T15:01:52.197Z,26.79
2019-04-26T15:04:17.359Z,26.78
2019-04-26T15:06:44.045Z,26.74
2019-04-26T15:09:17.966Z,26.78
2019-04-26T15:11:37.322Z,26.75
2019-04-26T15:14:03.956Z,26.76
2019-04-26T15:16:30.622Z,26.80
2019-04-26T15:18:57.244Z,26.77
2019-04-26T15:21:27.368Z,26.76
2019-04-26T15:23:50.567Z,26.76
2019-04-26T15:26:18.410Z,26.73
2019-04-26T15:28:50.066Z,26.74
2019-04-26T15:31:10.503Z,26.74
2019-04-26T15:33:37.178Z,26.72
2019-04-26T15:36:06.469Z,26.79
2019-04-26T15:38:34.881Z,26.69
2019-04-26T15:40:57.102Z,26.74
2019-04-26T15:43:24.040Z,26.71
2019-04-26T15:45:50.385Z,26.68
2019-04-26T15:48:20.189Z,26.66
2019-04-26T15:50:50.232Z,26.65
2019-04-26T15:53:12.747Z,26.61
2019-04-26T15:55:39.917Z,26.63
2019-04-26T15:58:08.175Z,26.62
2019-04-26T16:00:32.725Z,26.59
2019-04-26T16:02:58.573Z,26.57
2019-04-26T16:05:29.134Z,26.52
2019-04-26T16:07:50.205Z,26.51
2019-04-26T16:10:16.840Z,26.50
2019-04-26T16:12:43.696Z,26.50
2019-04-26T16:15:11.447Z,26.43
2019-04-26T16:17:40.132Z,26.45
2019-04-26T16:20:03.644Z,26.42
2019-04-26T16:22:31.677Z,26.41
2019-04-26T16:24:58.259Z,26.41
2019-04-26T16:27:24.671Z,26.36
2019-04-26T16:29:50.888Z,26.35
2019-04-26T16:32:21.644Z,26.35
2019-04-26T16:34:47.610Z,26.33
2019-04-26T16:37:10.181Z,26.32
2019-04-26T16:39:39.125Z,26.31
2019-04-26T16:42:05.025Z,26.26
2019-04-26T16:44:31.827Z,26.24
2019-04-26T16:47:01.284Z,26.21
2019-04-26T16:49:23.530Z,26.22
2019-04-26T16:51:54.549Z,26.19
2019-04-26T16:54:21.884Z,26.17
2019-04-26T16:56:43.987Z,26.16
2019-04-26T17:01:38.162Z,26.14
2019-04-26T17:04:04.679Z,26.11
2019-04-26T17:06:29.987Z,26.11
2019-04-26T17:09:01.505Z,26.09
2019-04-26T17:11:23.269Z,26.08
2019-04-26T17:13:54.485Z,26.07
2019-04-26T17:18:43.219Z,26.02
2019-04-26T17:21:09.898Z,26.02
2019-04-26T17:23:36.549Z,25.99
2019-04-26T17:26:04.004Z,25.97
2019-04-26T17:28:29.817Z,25.94
2019-04-26T17:30:56.468Z,25.92
2019-04-26T17:33:28.070Z,25.90
2019-04-26T17:35:49.812Z,25.90
2019-04-26T17:38:16.488Z,25.89
2019-04-26T17:40:43.150Z,25.89
2019-04-26T17:43:10.926Z,25.87
2019-04-26T17:45:40.313Z,25.85
2019-04-26T17:48:06.682Z,25.85
2019-04-26T17:50:30.937Z,25.83
2019-04-26T17:52:56.489Z,25.82
2019-04-26T17:55:23.192Z,25.82
2019-04-26T17:57:50.665Z,25.78
2019-04-26T18:00:22.250Z,25.77
2019-04-26T18:02:47.928Z,25.76
2019-04-26T18:05:10.857Z,25.75
2019-04-26T18:07:41.411Z,25.75
2019-04-26T18:10:04.882Z,25.74
2019-04-26T18:12:32.615Z,25.73
2019-04-26T18:14:56.343Z,25.69
2019-04-26T18:17:23.179Z,25.71
2019-04-26T18:19:49.659Z,25.68
2019-04-26T18:22:16.294Z,25.66
2019-04-26T18:24:43.185Z,25.66
2019-04-26T18:27:09.582Z,25.66
2019-04-26T18:29:36.231Z,25.63
2019-04-26T18:32:03.652Z,25.65
2019-04-26T18:34:30.560Z,25.64
2019-04-26T18:36:57.395Z,25.65
2019-04-26T18:39:26.278Z,25.65
2019-04-26T18:41:49.520Z,25.63
2019-04-26T18:44:16.159Z,25.61
2019-04-26T18:46:46.879Z,25.57
2019-04-26T18:49:11.455Z,25.61
2019-04-26T18:51:36.124Z,25.57
2019-04-26T18:54:04.855Z,25.54
2019-04-26T18:56:29.444Z,25.56
2019-04-26T18:58:56.078Z,25.56
2019-04-26T19:01:22.720Z,25.58
2019-04-26T19:03:49.587Z,25.53
2019-04-26T19:06:28.687Z,25.54
2019-04-26T19:08:47.650Z,25.51
2019-04-26T19:11:11.735Z,25.60
2019-04-26T19:13:36.805Z,25.53
2019-04-26T19:16:03.658Z,25.48
2019-04-26T19:20:55.883Z,25.47
2019-04-26T19:23:28.766Z,25.49
2019-04-26T19:25:49.156Z,25.43
2019-04-26T19:30:49.051Z,25.49
2019-04-26T19:33:11.739Z,25.46
2019-04-26T19:35:39.327Z,25.48
2019-04-26T19:38:03.231Z,25.47
2019-04-26T19:40:29.054Z,25.45
2019-04-26T19:42:57.454Z,25.41
2019-04-26T19:45:22.519Z,25.41
2019-04-26T19:47:49.043Z,25.42
2019-04-26T19:50:17.014Z,25.41
2019-04-26T19:52:42.953Z,25.33
2019-04-26T19:55:11.441Z,25.39
2019-04-26T19:57:39.241Z,25.37
2019-04-26T20:00:03.745Z,25.36
2019-04-26T20:02:35.786Z,25.35
2019-04-26T20:04:55.531Z,25.35
2019-04-26T20:07:24.243Z,25.31
2019-04-26T20:09:48.880Z,25.34
2019-04-26T20:14:49.209Z,25.32
2019-04-26T20:17:13.205Z,25.28
2019-04-26T20:19:37.513Z,25.30
2019-04-26T20:24:28.788Z,25.29
2019-04-26T20:26:55.467Z,25.29
2019-04-26T20:29:23.207Z,25.28
2019-04-26T20:31:48.754Z,25.19
2019-04-26T20:34:18.401Z,25.23
2019-04-26T20:36:47.665Z,25.27
2019-04-26T20:39:12.548Z,25.22
2019-04-26T20:41:38.413Z,25.17
2019-04-26T20:44:09.851Z,25.22
2019-04-26T20:46:34.369Z,25.22
2019-04-26T20:49:05.091Z,25.22
2019-04-26T20:51:27.943Z,25.20
2019-04-26T20:53:54.583Z,25.19
2019-04-26T20:56:22.503Z,25.21
2019-04-26T20:58:47.899Z,25.20
2019-04-26T21:01:14.544Z,25.17
2019-04-26T21:06:07.863Z,25.16
2019-04-26T21:08:34.495Z,25.12
2019-04-26T21:11:01.734Z,25.10
2019-04-26T21:13:30.770Z,25.16
2019-04-26T21:15:58.308Z,25.14
2019-04-26T21:18:21.153Z,25.14
2019-04-26T21:20:47.775Z,25.12
2019-04-26T21:23:15.390Z,25.10
2019-04-26T21:28:08.053Z,25.07
2019-04-26T21:30:34.805Z,25.04
2019-04-26T21:33:02.875Z,25.06
2019-04-26T21:35:28.403Z,25.06
2019-04-26T21:37:56.489Z,25.03
2019-04-26T21:40:24.683Z,25.05
2019-04-26T21:42:47.696Z,25.05
2019-04-26T21:45:14.343Z,25.03
2019-04-26T21:50:07.675Z,24.99
2019-04-26T21:52:34.391Z,24.97
2019-04-26T21:55:00.955Z,24.96
2019-04-26T21:57:31.761Z,24.97
2019-04-26T21:59:56.773Z,24.97
2019-04-26T22:02:25.428Z,24.96
2019-04-26T22:04:50.077Z,24.96
2019-04-26T22:07:16.736Z,24.91
2019-04-26T22:12:10.042Z,24.94
2019-04-26T22:14:36.679Z,24.89
2019-04-26T22:17:05.387Z,24.84
2019-04-26T22:19:32.477Z,24.82
2019-04-26T22:21:59.485Z,24.85
2019-04-26T22:24:23.415Z,24.88
2019-04-26T22:26:49.876Z,24.83
2019-04-26T22:29:16.883Z,24.82
2019-04-26T22:31:43.180Z,24.83
2019-04-26T22:34:09.843Z,24.79
2019-04-26T22:36:36.518Z,24.77
2019-04-26T22:39:04.631Z,24.79
2019-04-26T22:41:29.817Z,24.80
2019-04-26T22:43:56.451Z,24.76
2019-04-26T22:46:26.998Z,24.70
2019-04-26T22:48:54.715Z,24.73
2019-04-26T22:51:16.440Z,24.70
2019-04-26T22:53:43.410Z,24.72
2019-04-26T22:56:09.721Z,24.71
2019-04-26T22:58:36.376Z,24.68
2019-04-26T23:01:06.149Z,24.65
2019-04-26T23:03:29.667Z,24.69
2019-04-26T23:05:58.402Z,24.65
2019-04-26T23:08:23.627Z,24.62
2019-04-26T23:10:49.597Z,24.65
2019-04-26T23:13:16.251Z,24.64
2019-04-26T23:15:43.351Z,24.67
2019-04-26T23:18:09.544Z,24.57
2019-04-26T23:20:37.882Z,24.61
2019-04-26T23:23:06.852Z,24.58
2019-04-26T23:25:31.209Z,24.61
2019-04-26T23:27:58.291Z,24.60
2019-04-26T23:30:23.078Z,24.52
2019-04-26T23:32:52.229Z,24.52
2019-04-26T23:35:16.151Z,24.51
2019-04-26T23:37:42.784Z,24.51
2019-04-26T23:40:09.470Z,24.52
2019-04-26T23:42:36.163Z,24.50
2019-04-26T23:45:03.087Z,24.49
2019-04-26T23:49:57.119Z,24.46
2019-04-26T23:52:23.017Z,24.47
2019-04-26T23:54:49.354Z,24.44
2019-04-26T23:57:15.983Z,24.43
2019-04-26T23:59:43.099Z,24.41
